Time;durP1;ratioP1;P1;durP2;ratioP2;P2;SDS_P1;SDS_P2;PMS_P1;PMS_P2;Temp;Humidity;BMP_temperature;BMP_pressure;BME280_temperature;BME280_humidity;BME280_pressure;Samples;Min_cycle;Max_cycle;Signal;HPM_P1;HPM_P2
2023/06/05 00:00:45;;;;;;;5.33;1.70;;;;;;;;;;6060022;23;20426;-93
2023/06/05 00:03:11;;;;;;;4.27;2.10;;;;;;;;;;6059753;23;20371;-94
2023/06/05 00:05:37;;;;;;;2.93;2.20;;;;;;;;;;6061573;23;20472;-94
2023/06/05 00:08:03;;;;;;;3.97;2.10;;;;;;;;;;6058738;23;20476;-95
2023/06/05 00:10:29;;;;;;;7.77;1.77;;;;;;;;;;6126151;23;21011;-93
2023/06/05 00:12:55;;;;;;;3.67;2.90;;;;;;;;;;6147819;23;20368;-95
2023/06/05 00:15:21;;;;;;;7.70;4.73;;;;;;;;;;6148026;23;20427;-94
2023/06/05 00:17:48;;;;;;;3.03;2.27;;;;;;;;;;6171121;23;20379;-92
2023/06/05 00:20:14;;;;;;;5.67;2.63;;;;;;;;;;6148368;23;20372;-93
2023/06/05 00:22:40;;;;;;;3.70;2.30;;;;;;;;;;6150294;23;20394;-95
2023/06/05 00:25:06;;;;;;;2.53;2.00;;;;;;;;;;6152416;23;20436;-94
2023/06/05 00:27:32;;;;;;;3.20;1.87;;;;;;;;;;6153343;23;20399;-94
2023/06/05 00:29:58;;;;;;;3.07;1.90;;;;;;;;;;6152792;23;20406;-94
2023/06/05 00:32:24;;;;;;;3.10;1.83;;;;;;;;;;6151173;23;20474;-94
2023/06/05 00:34:50;;;;;;;2.70;2.00;;;;;;;;;;6178569;23;20396;-94
2023/06/05 00:37:16;;;;;;;2.43;2.03;;;;;;;;;;6175590;23;20652;-95
2023/06/05 00:39:42;;;;;;;2.43;2.00;;;;;;;;;;6174384;23;20374;-95
2023/06/05 00:42:08;;;;;;;2.87;1.73;;;;;;;;;;6173629;23;20388;-94
2023/06/05 00:44:35;;;;;;;2.60;1.80;;;;;;;;;;6174970;23;20411;-95
2023/06/05 00:47:01;;;;;;;4.23;2.17;;;;;;;;;;6172414;23;20395;-94
2023/06/05 00:49:27;;;;;;;3.80;2.23;;;;;;;;;;6172288;23;20949;-92
2023/06/05 00:51:53;;;;;;;4.63;1.93;;;;;;;;;;6170087;23;20403;-94
2023/06/05 00:54:20;;;;;;;3.90;2.03;;;;;;;;;;6170244;23;20399;-95
2023/06/05 00:56:46;;;;;;;3.57;2.23;;;;;;;;;;6171091;23;20406;-91
2023/06/05 00:59:13;;;;;;;4.30;1.90;;;;;;;;;;6172621;23;20455;-93
2023/06/05 01:01:40;;;;;;;4.40;2.23;;;;;;;;;;6174464;23;20388;-94
2023/06/05 01:04:06;;;;;;;3.07;2.03;;;;;;;;;;6174720;23;20399;-94
2023/06/05 01:06:33;;;;;;;3.07;1.70;;;;;;;;;;6156399;23;20396;-92
2023/06/05 01:09:01;;;;;;;4.67;2.10;;;;;;;;;;6153729;23;20431;-92
2023/06/05 01:11:28;;;;;;;3.50;2.00;;;;;;;;;;6174192;23;20411;-95
2023/06/05 01:14:05;;;;;;;4.00;2.43;;;;;;;;;;6105759;23;20403;-94
2023/06/05 01:16:32;;;;;;;6.43;2.50;;;;;;;;;;6029981;23;20395;-94
2023/06/05 01:19:02;;;;;;;2.70;1.90;;;;;;;;;;6005155;23;20464;-94
2023/06/05 01:21:29;;;;;;;5.03;2.03;;;;;;;;;;6002351;23;20396;-93
2023/06/05 01:23:55;;;;;;;3.33;2.13;;;;;;;;;;6005240;23;20423;-94
2023/06/05 01:26:21;;;;;;;3.30;1.80;;;;;;;;;;6001408;23;20404;-94
2023/06/05 01:28:47;;;;;;;5.70;2.13;;;;;;;;;;6005432;23;20481;-93
2023/06/05 01:31:15;;;;;;;3.50;2.27;;;;;;;;;;6004803;23;20452;-92
2023/06/05 01:41:32;;;;;;;3.90;3.50;;;;;;;;;;6190401;23;20423;-94
2023/06/05 01:43:59;;;;;;;4.67;2.63;;;;;;;;;;6139130;23;20471;-94
2023/06/05 01:46:25;;;;;;;2.40;1.90;;;;;;;;;;6137648;23;20474;-94
2023/06/05 01:48:54;;;;;;;4.30;2.00;;;;;;;;;;6160473;23;20379;-94
2023/06/05 01:51:20;;;;;;;3.50;1.77;;;;;;;;;;6160804;23;20423;-95
2023/06/05 01:53:48;;;;;;;3.53;1.97;;;;;;;;;;6161717;23;20384;-94
2023/06/05 01:56:19;;;;;;;3.07;2.13;;;;;;;;;;6161428;23;20436;-96
2023/06/05 01:58:46;;;;;;;6.10;2.07;;;;;;;;;;6161489;23;20368;-95
2023/06/05 02:01:12;;;;;;;2.60;1.53;;;;;;;;;;6162477;23;20759;-94
2023/06/05 02:03:40;;;;;;;2.90;2.07;;;;;;;;;;6160722;23;20388;-94
2023/06/05 02:06:06;;;;;;;2.10;1.50;;;;;;;;;;6161617;23;20380;-95
2023/06/05 02:08:32;;;;;;;3.20;2.23;;;;;;;;;;6162009;23;20431;-95
2023/06/05 02:11:02;;;;;;;2.70;1.90;;;;;;;;;;6162991;23;20475;-94
2023/06/05 02:13:28;;;;;;;3.47;1.90;;;;;;;;;;6164358;23;20390;-94
2023/06/05 02:15:56;;;;;;;2.37;2.03;;;;;;;;;;6165984;23;20450;-94
2023/06/05 02:18:25;;;;;;;9.50;2.00;;;;;;;;;;6163437;23;20411;-95
2023/06/05 02:20:57;;;;;;;5.90;2.97;;;;;;;;;;6142714;23;20398;-94
2023/06/05 02:23:24;;;;;;;2.37;1.90;;;;;;;;;;6141047;23;20387;-95
2023/06/05 02:25:56;;;;;;;3.00;2.10;;;;;;;;;;6143559;23;20459;-95
2023/06/05 02:28:22;;;;;;;3.10;2.00;;;;;;;;;;6140165;23;20384;-95
2023/06/05 02:30:48;;;;;;;2.57;1.63;;;;;;;;;;6141449;23;20451;-95
2023/06/05 02:33:15;;;;;;;2.93;2.10;;;;;;;;;;6140813;23;20400;-95
2023/06/05 02:35:44;;;;;;;2.80;2.00;;;;;;;;;;6141340;23;20388;-94
2023/06/05 02:38:12;;;;;;;3.33;2.10;;;;;;;;;;6142336;23;20395;-94
2023/06/05 02:40:38;;;;;;;3.60;2.20;;;;;;;;;;6141527;23;20388;-94
2023/06/05 02:43:05;;;;;;;2.93;1.77;;;;;;;;;;6141368;23;20391;-95
2023/06/05 02:45:34;;;;;;;3.50;2.07;;;;;;;;;;6143278;23;20404;-94
2023/06/05 02:48:01;;;;;;;3.47;2.30;;;;;;;;;;6142356;23;20456;-94
2023/06/05 02:50:27;;;;;;;3.07;1.80;;;;;;;;;;6170421;23;20372;-94
2023/06/05 02:52:53;;;;;;;4.80;2.27;;;;;;;;;;6141464;23;20886;-93
2023/06/05 02:55:19;;;;;;;4.20;1.93;;;;;;;;;;6143265;23;20453;-95
2023/06/05 02:57:48;;;;;;;4.67;2.87;;;;;;;;;;6143538;23;20381;-95
2023/06/05 03:00:16;;;;;;;5.23;3.33;;;;;;;;;;6143689;23;20380;-95
2023/06/05 03:02:48;;;;;;;2.70;2.00;;;;;;;;;;6142932;23;20983;-96
2023/06/05 03:05:14;;;;;;;4.83;2.47;;;;;;;;;;6144832;23;20396;-95
2023/06/05 03:07:40;;;;;;;4.73;2.40;;;;;;;;;;6142169;23;20396;-95
2023/06/05 03:10:07;;;;;;;3.90;2.10;;;;;;;;;;6142417;23;20388;-95
2023/06/05 03:12:33;;;;;;;2.53;2.00;;;;;;;;;;6141261;23;20455;-96
2023/06/05 03:15:00;;;;;;;3.37;2.30;;;;;;;;;;6141760;23;20369;-96
2023/06/05 03:17:28;;;;;;;3.43;2.40;;;;;;;;;;6141489;23;20910;-95
2023/06/05 03:19:54;;;;;;;5.00;2.30;;;;;;;;;;6107212;23;20429;-95
2023/06/05 03:22:20;;;;;;;6.10;2.30;;;;;;;;;;6082565;23;20396;-95
2023/06/05 03:24:46;;;;;;;3.60;2.07;;;;;;;;;;6085513;23;20390;-95
2023/06/05 03:27:15;;;;;;;4.30;2.53;;;;;;;;;;6084413;23;20389;-95
2023/06/05 03:29:44;;;;;;;3.07;2.30;;;;;;;;;;6085200;23;20405;-96
2023/06/05 03:32:10;;;;;;;3.37;2.27;;;;;;;;;;6084575;23;20453;-95
2023/06/05 03:34:36;;;;;;;5.77;2.50;;;;;;;;;;6085989;23;20397;-96
2023/06/05 03:37:05;;;;;;;3.10;2.03;;;;;;;;;;6084904;23;20390;-95
2023/06/05 03:39:31;;;;;;;3.10;2.37;;;;;;;;;;6083688;23;20396;-94
2023/06/05 03:41:58;;;;;;;3.53;2.13;;;;;;;;;;6083564;23;20427;-94
2023/06/05 03:44:24;;;;;;;3.00;2.20;;;;;;;;;;6086683;23;20393;-95
2023/06/05 03:46:50;;;;;;;3.17;1.90;;;;;;;;;;6086244;23;20428;-95
2023/06/05 03:49:18;;;;;;;3.37;2.00;;;;;;;;;;6088316;23;20412;-94
2023/06/05 03:51:45;;;;;;;3.80;2.60;;;;;;;;;;6085582;23;20479;-95
2023/06/05 03:54:16;;;;;;;12.27;2.67;;;;;;;;;;6088829;23;20382;-94
2023/06/05 03:56:49;;;;;;;5.90;2.80;;;;;;;;;;6108659;23;20927;-94
2023/06/05 03:59:22;;;;;;;10.10;2.67;;;;;;;;;;6084645;23;20433;-94
2023/06/05 04:01:48;;;;;;;3.80;2.10;;;;;;;;;;6083009;23;20460;-95
2023/06/05 04:04:14;;;;;;;2.90;2.30;;;;;;;;;;6084881;23;20922;-95
2023/06/05 04:06:40;;;;;;;5.50;2.50;;;;;;;;;;6086740;23;20389;-95
2023/06/05 04:09:11;;;;;;;4.50;2.00;;;;;;;;;;6092096;23;20463;-94
2023/06/05 04:11:38;;;;;;;6.13;3.30;;;;;;;;;;6087911;23;20434;-94
2023/06/05 04:14:05;;;;;;;3.50;2.63;;;;;;;;;;6116654;23;20397;-96
2023/06/05 04:16:33;;;;;;;3.10;2.30;;;;;;;;;;6121041;23;20467;-95
2023/06/05 04:19:00;;;;;;;3.87;2.70;;;;;;;;;;6148834;23;20372;-95
2023/06/05 04:21:27;;;;;;;4.10;2.30;;;;;;;;;;6176279;23;20380;-96
2023/06/05 04:23:53;;;;;;;4.93;2.83;;;;;;;;;;6152722;23;20392;-96
2023/06/05 04:26:20;;;;;;;3.07;2.37;;;;;;;;;;6153409;23;20423;-96
2023/06/05 04:28:50;;;;;;;2.97;2.37;;;;;;;;;;6152319;23;20398;-94
2023/06/05 04:31:16;;;;;;;3.87;2.60;;;;;;;;;;6144369;23;20420;-95
2023/06/05 04:33:42;;;;;;;3.07;2.37;;;;;;;;;;6142383;23;20380;-95
2023/06/05 04:36:08;;;;;;;4.63;2.47;;;;;;;;;;6143410;23;20400;-95
2023/06/05 04:38:34;;;;;;;3.17;2.70;;;;;;;;;;6142507;23;20391;-94
2023/06/05 04:41:01;;;;;;;5.47;2.40;;;;;;;;;;6143875;23;20399;-96
2023/06/05 04:43:27;;;;;;;3.10;2.43;;;;;;;;;;6143249;23;20395;-96
2023/06/05 04:45:54;;;;;;;6.50;2.47;;;;;;;;;;6149780;23;20376;-94
2023/06/05 04:48:20;;;;;;;3.90;2.17;;;;;;;;;;6145876;23;20399;-94
2023/06/05 04:50:47;;;;;;;3.27;2.33;;;;;;;;;;6145542;23;20420;-93
2023/06/05 04:53:13;;;;;;;4.33;2.30;;;;;;;;;;6144989;23;20396;-95
2023/06/05 04:55:40;;;;;;;5.73;2.37;;;;;;;;;;6169158;23;21036;-94
2023/06/05 04:58:06;;;;;;;5.77;2.20;;;;;;;;;;6143128;23;20829;-94
2023/06/05 05:00:32;;;;;;;5.60;2.20;;;;;;;;;;6146223;23;21082;-95
2023/06/05 05:02:59;;;;;;;6.37;2.77;;;;;;;;;;6144714;23;20395;-96
2023/06/05 05:05:28;;;;;;;3.50;2.40;;;;;;;;;;6147236;23;20479;-94
2023/06/05 05:07:54;;;;;;;2.50;2.30;;;;;;;;;;6144801;23;20379;-94
2023/06/05 05:10:20;;;;;;;4.73;2.30;;;;;;;;;;6142496;23;20392;-94
2023/06/05 05:12:46;;;;;;;4.00;2.40;;;;;;;;;;6143184;23;20438;-94
2023/06/05 05:15:12;;;;;;;4.90;2.30;;;;;;;;;;6143740;23;20399;-94
2023/06/05 05:17:38;;;;;;;4.20;2.90;;;;;;;;;;6141993;23;20472;-95
2023/06/05 05:20:08;;;;;;;4.37;2.43;;;;;;;;;;6146283;23;20403;-93
2023/06/05 05:22:34;;;;;;;3.30;2.23;;;;;;;;;;6144706;23;20375;-94
2023/06/05 05:25:03;;;;;;;3.10;2.30;;;;;;;;;;6145675;23;20432;-95
2023/06/05 05:27:29;;;;;;;5.03;2.73;;;;;;;;;;6143532;23;20434;-95
2023/06/05 05:30:00;;;;;;;3.10;2.40;;;;;;;;;;6144345;23;20391;-94
2023/06/05 05:32:26;;;;;;;4.20;2.20;;;;;;;;;;6142773;23;20439;-94
2023/06/05 05:34:53;;;;;;;4.83;2.43;;;;;;;;;;6142751;23;20388;-95
2023/06/05 05:37:22;;;;;;;5.40;2.43;;;;;;;;;;6142966;23;20385;-95
2023/06/05 05:39:51;;;;;;;3.40;2.10;;;;;;;;;;6144770;23;20451;-94
2023/06/05 05:42:19;;;;;;;4.00;2.33;;;;;;;;;;6168085;23;20402;-96
2023/06/05 05:44:45;;;;;;;3.20;2.10;;;;;;;;;;6144547;23;20415;-94
2023/06/05 05:47:14;;;;;;;3.93;2.27;;;;;;;;;;6145702;23;20467;-95
2023/06/05 05:49:41;;;;;;;3.07;2.40;;;;;;;;;;6145397;23;20396;-96
2023/06/05 05:52:10;;;;;;;3.60;2.67;;;;;;;;;;6146564;23;20526;-95
2023/06/05 05:54:36;;;;;;;2.80;2.00;;;;;;;;;;6145509;23;20404;-93
2023/06/05 05:57:04;;;;;;;3.13;2.30;;;;;;;;;;6145741;23;20402;-95
2023/06/05 05:59:30;;;;;;;4.93;2.17;;;;;;;;;;6144404;23;20395;-94
2023/06/05 06:02:09;;;;;;;3.53;2.60;;;;;;;;;;6171732;23;20387;-95
2023/06/05 06:04:36;;;;;;;2.83;2.30;;;;;;;;;;6181865;23;20518;-91
2023/06/05 06:07:02;;;;;;;2.30;2.03;;;;;;;;;;6139995;23;20741;-92
2023/06/05 06:09:28;;;;;;;3.33;2.20;;;;;;;;;;6141084;23;20430;-92
2023/06/05 06:11:55;;;;;;;3.90;1.90;;;;;;;;;;6144084;23;20903;-92
2023/06/05 06:14:22;;;;;;;4.33;2.20;;;;;;;;;;6139475;23;20384;-92
2023/06/05 06:16:49;;;;;;;4.83;3.90;;;;;;;;;;6167027;23;20462;-92
2023/06/05 06:19:16;;;;;;;3.23;2.37;;;;;;;;;;6141349;23;20386;-92
2023/06/05 06:21:42;;;;;;;3.40;2.50;;;;;;;;;;6140205;23;20380;-91
2023/06/05 06:24:09;;;;;;;3.30;2.13;;;;;;;;;;6141878;23;20372;-92
2023/06/05 06:26:38;;;;;;;4.70;2.60;;;;;;;;;;6141361;23;20475;-91
2023/06/05 06:29:05;;;;;;;3.70;2.37;;;;;;;;;;6139833;23;20462;-91
2023/06/05 06:31:31;;;;;;;4.27;2.60;;;;;;;;;;6138641;23;20497;-88
2023/06/05 06:33:59;;;;;;;5.00;2.10;;;;;;;;;;6164734;23;20881;-92
2023/06/05 06:36:26;;;;;;;3.93;2.73;;;;;;;;;;6143713;23;20376;-92
2023/06/05 06:38:52;;;;;;;6.77;2.47;;;;;;;;;;6139352;23;20391;-91
2023/06/05 06:41:18;;;;;;;3.73;2.50;;;;;;;;;;6140472;23;20403;-92
2023/06/05 06:43:50;;;;;;;3.90;2.00;;;;;;;;;;6139770;23;20406;-91
2023/06/05 06:46:16;;;;;;;3.93;2.70;;;;;;;;;;6139728;23;20383;-93
2023/06/05 06:48:43;;;;;;;3.30;2.33;;;;;;;;;;6164376;23;20365;-91
2023/06/05 06:51:09;;;;;;;3.20;2.73;;;;;;;;;;6140227;23;20432;-91
2023/06/05 06:53:35;;;;;;;5.90;2.90;;;;;;;;;;6140323;23;20392;-91
2023/06/05 06:56:01;;;;;;;6.50;2.40;;;;;;;;;;6164750;23;20749;-91
2023/06/05 06:58:27;;;;;;;3.70;2.77;;;;;;;;;;6164187;23;20476;-92
2023/06/05 07:00:53;;;;;;;6.80;2.73;;;;;;;;;;6140233;23;20387;-92
2023/06/05 07:03:19;;;;;;;5.00;3.20;;;;;;;;;;6139713;23;20404;-92
2023/06/05 07:05:45;;;;;;;6.87;2.77;;;;;;;;;;6140996;23;20384;-91
2023/06/05 07:08:13;;;;;;;5.10;2.70;;;;;;;;;;6141204;23;20479;-92
2023/06/05 07:10:40;;;;;;;4.93;3.13;;;;;;;;;;6146090;23;20420;-92
2023/06/05 07:13:06;;;;;;;5.37;3.10;;;;;;;;;;6140137;23;20465;-92
2023/06/05 07:15:32;;;;;;;4.23;2.97;;;;;;;;;;6140882;23;20368;-92
2023/06/05 07:17:58;;;;;;;7.63;3.20;;;;;;;;;;6139723;23;21232;-91
2023/06/05 07:20:24;;;;;;;4.10;2.50;;;;;;;;;;6163394;23;20372;-92
2023/06/05 07:22:50;;;;;;;4.90;3.00;;;;;;;;;;6140020;23;20761;-92
2023/06/05 07:25:17;;;;;;;6.23;2.80;;;;;;;;;;6141761;23;20395;-92
2023/06/05 07:27:44;;;;;;;7.13;4.37;;;;;;;;;;6142795;23;20427;-93
2023/06/05 07:30:10;;;;;;;4.80;2.80;;;;;;;;;;6141184;23;20438;-91
2023/06/05 07:32:36;;;;;;;6.93;3.57;;;;;;;;;;6140812;23;20508;-91
2023/06/05 07:35:02;;;;;;;5.50;3.33;;;;;;;;;;6141198;23;20394;-90
2023/06/05 07:37:28;;;;;;;4.33;3.27;;;;;;;;;;6141721;23;20391;-93
2023/06/05 07:39:54;;;;;;;8.70;3.90;;;;;;;;;;6140833;23;20399;-91
2023/06/05 07:42:20;;;;;;;5.63;2.93;;;;;;;;;;6144889;23;20775;-90
2023/06/05 07:44:48;;;;;;;5.03;2.87;;;;;;;;;;6141203;23;20396;-93
2023/06/05 07:47:15;;;;;;;3.73;2.83;;;;;;;;;;6144019;23;20727;-93
2023/06/05 07:49:41;;;;;;;5.17;3.50;;;;;;;;;;6140826;23;20384;-92
2023/06/05 07:52:07;;;;;;;5.10;3.70;;;;;;;;;;6142331;23;20419;-92
2023/06/05 07:54:33;;;;;;;6.20;3.87;;;;;;;;;;6143973;23;20396;-92
2023/06/05 07:56:59;;;;;;;9.33;4.10;;;;;;;;;;6142375;23;20399;-92
2023/06/05 07:59:27;;;;;;;5.50;4.80;;;;;;;;;;6141523;23;20376;-92
2023/06/05 08:01:54;;;;;;;6.50;4.40;;;;;;;;;;6142687;23;20375;-91
2023/06/05 08:17:19;;;;;;;8.17;4.90;;;;;;;;;;6192283;23;20462;-93
2023/06/05 08:19:45;;;;;;;8.33;5.00;;;;;;;;;;6167485;23;20375;-93
2023/06/05 08:22:12;;;;;;;7.43;6.20;;;;;;;;;;6148243;23;20420;-93
2023/06/05 08:24:38;;;;;;;5.90;5.30;;;;;;;;;;6150710;23;20416;-94
2023/06/05 08:27:05;;;;;;;6.87;6.13;;;;;;;;;;6147141;23;20403;-95
2023/06/05 08:29:35;;;;;;;6.00;5.30;;;;;;;;;;6142963;23;20397;-92
2023/06/05 08:32:01;;;;;;;8.67;6.37;;;;;;;;;;6143943;23;20447;-92
2023/06/05 08:34:27;;;;;;;7.73;5.80;;;;;;;;;;6166412;23;20475;-92
2023/06/05 08:36:57;;;;;;;5.73;5.13;;;;;;;;;;6142095;23;20391;-96
2023/06/05 08:39:26;;;;;;;6.57;5.40;;;;;;;;;;6141770;23;20387;-93
2023/06/05 08:41:54;;;;;;;6.53;5.80;;;;;;;;;;6142969;23;20384;-94
2023/06/05 08:44:20;;;;;;;7.10;6.10;;;;;;;;;;6141390;23;20418;-92
2023/06/05 08:46:46;;;;;;;8.47;6.30;;;;;;;;;;6142993;23;20439;-92
2023/06/05 08:49:12;;;;;;;9.70;5.73;;;;;;;;;;6141498;23;20365;-92
2023/06/05 08:51:40;;;;;;;6.73;6.10;;;;;;;;;;6141291;23;20440;-92
2023/06/05 08:54:12;;;;;;;13.80;7.13;;;;;;;;;;6141016;23;20894;-93
2023/06/05 08:56:38;;;;;;;8.43;5.70;;;;;;;;;;6141933;23;20483;-93
2023/06/05 08:59:04;;;;;;;8.20;5.70;;;;;;;;;;6140977;23;20368;-95
2023/06/05 09:01:32;;;;;;;7.87;5.73;;;;;;;;;;6142271;23;20886;-93
2023/06/05 09:03:58;;;;;;;13.60;6.77;;;;;;;;;;6081441;23;20391;-96
2023/06/05 09:06:24;;;;;;;7.07;6.37;;;;;;;;;;6080545;23;20412;-93
2023/06/05 09:16:39;;;;;;;11.23;5.43;;;;;;;;;;6189629;23;20442;-91
2023/06/05 09:19:05;;;;;;;6.57;5.83;;;;;;;;;;6145998;23;20391;-95
2023/06/05 09:21:31;;;;;;;10.63;5.73;;;;;;;;;;6144588;23;20407;-95
2023/06/05 09:24:16;;;;;;;7.40;6.60;;;;;;;;;;6144087;23;20384;-96
2023/06/05 09:26:52;;;;;;;6.60;5.90;;;;;;;;;;6144741;23;20731;-95
2023/06/05 09:29:37;;;;;;;7.20;5.60;;;;;;;;;;6165827;23;20372;-94
2023/06/05 09:32:07;;;;;;;6.00;5.40;;;;;;;;;;6144600;23;20487;-91
2023/06/05 09:34:33;;;;;;;7.20;4.73;;;;;;;;;;6140310;23;20486;-96
2023/06/05 09:37:00;;;;;;;7.40;6.27;;;;;;;;;;6195083;23;20365;-95
2023/06/05 09:39:26;;;;;;;6.77;5.87;;;;;;;;;;6150602;23;20392;-96
2023/06/05 09:41:53;;;;;;;11.50;5.97;;;;;;;;;;6143315;23;20840;-96
2023/06/05 09:44:19;;;;;;;7.43;5.70;;;;;;;;;;6142499;23;20382;-93
2023/06/05 09:47:07;;;;;;;8.40;6.27;;;;;;;;;;6142621;23;20379;-93
2023/06/05 10:10:19;;;;;;;6.30;5.70;;;;;;;;;;6196901;23;20409;-94
2023/06/05 10:12:45;;;;;;;5.60;5.10;;;;;;;;;;6145155;23;20420;-95
2023/06/05 10:15:11;;;;;;;6.37;5.77;;;;;;;;;;6141528;23;20383;-95
2023/06/05 10:17:38;;;;;;;7.03;6.30;;;;;;;;;;6141860;23;20398;-93
2023/06/05 10:20:06;;;;;;;6.90;5.00;;;;;;;;;;6143509;23;20372;-94
2023/06/05 10:22:32;;;;;;;6.00;5.30;;;;;;;;;;6145974;23;20396;-94
2023/06/05 10:25:00;;;;;;;6.23;5.63;;;;;;;;;;6168681;23;20371;-96
2023/06/05 10:27:44;;;;;;;6.13;5.27;;;;;;;;;;6147323;23;20395;-96
2023/06/05 10:30:12;;;;;;;7.17;5.13;;;;;;;;;;6079369;23;20394;-91
2023/06/05 10:32:50;;;;;;;5.90;5.27;;;;;;;;;;6075750;23;20481;-92
2023/06/05 10:35:20;;;;;;;6.30;5.30;;;;;;;;;;6075911;23;20379;-91
2023/06/05 10:38:13;;;;;;;5.20;4.70;;;;;;;;;;6051910;23;20465;-91
2023/06/05 10:40:39;;;;;;;6.10;5.00;;;;;;;;;;6073333;23;20409;-91
2023/06/05 10:43:24;;;;;;;5.87;4.30;;;;;;;;;;6051996;23;21017;-91
2023/06/05 10:45:50;;;;;;;6.90;5.53;;;;;;;;;;6076188;23;20491;-91
2023/06/05 10:48:17;;;;;;;10.47;5.10;;;;;;;;;;6052220;23;20391;-92
2023/06/05 10:50:43;;;;;;;5.63;4.60;;;;;;;;;;6076052;23;20394;-92
2023/06/05 10:53:29;;;;;;;6.50;4.97;;;;;;;;;;6053253;23;20486;-92
2023/06/05 10:55:55;;;;;;;10.20;5.43;;;;;;;;;;6075969;23;20426;-92
2023/06/05 10:58:23;;;;;;;5.40;3.80;;;;;;;;;;6057830;23;20741;-92
2023/06/05 11:01:08;;;;;;;5.17;4.67;;;;;;;;;;6109949;23;20412;-92
2023/06/05 11:03:53;;;;;;;7.93;4.43;;;;;;;;;;6166845;23;20380;-92
2023/06/05 11:06:20;;;;;;;5.63;3.50;;;;;;;;;;6141104;23;20380;-91
2023/06/05 11:09:06;;;;;;;4.70;4.17;;;;;;;;;;6141926;23;20753;-92
2023/06/05 11:11:52;;;;;;;6.63;4.03;;;;;;;;;;6142324;23;20462;-92
2023/06/05 11:14:18;;;;;;;4.57;3.50;;;;;;;;;;6165838;23;20416;-93
2023/06/05 11:16:44;;;;;;;4.73;4.00;;;;;;;;;;6141869;23;20380;-93
2023/06/05 11:19:30;;;;;;;3.80;3.10;;;;;;;;;;6141996;23;21058;-93
2023/06/05 11:22:02;;;;;;;5.73;3.80;;;;;;;;;;6166370;23;20422;-92
2023/06/05 11:24:28;;;;;;;5.93;3.40;;;;;;;;;;6190508;23;20372;-91
2023/06/05 11:26:54;;;;;;;6.07;3.97;;;;;;;;;;6140054;23;20391;-91
2023/06/05 11:29:22;;;;;;;5.00;4.00;;;;;;;;;;6139207;23;20384;-91
2023/06/05 11:31:48;;;;;;;6.10;3.60;;;;;;;;;;6166487;23;20992;-92
2023/06/05 11:34:15;;;;;;;5.03;3.37;;;;;;;;;;6163623;23;20375;-91
2023/06/05 11:36:41;;;;;;;4.83;3.93;;;;;;;;;;6139462;23;20387;-91
2023/06/05 11:39:07;;;;;;;3.83;3.40;;;;;;;;;;6139808;23;20786;-92
2023/06/05 11:41:34;;;;;;;4.57;3.57;;;;;;;;;;6137658;23;20392;-92
2023/06/05 11:44:00;;;;;;;5.00;3.90;;;;;;;;;;6139591;23;20376;-91
2023/06/05 11:46:39;;;;;;;5.40;3.50;;;;;;;;;;6141497;23;20384;-92
2023/06/05 11:49:06;;;;;;;4.23;3.83;;;;;;;;;;6167269;23;20384;-93
2023/06/05 11:51:33;;;;;;;4.83;4.43;;;;;;;;;;6165470;23;20434;-93
2023/06/05 11:54:01;;;;;;;5.50;4.10;;;;;;;;;;6141069;23;20406;-92
2023/06/05 11:56:28;;;;;;;3.97;3.57;;;;;;;;;;6165602;23;20423;-93
2023/06/05 11:58:54;;;;;;;4.33;3.20;;;;;;;;;;6141798;23;20449;-93
2023/06/05 12:01:25;;;;;;;6.43;4.40;;;;;;;;;;6139811;23;20423;-92
2023/06/05 12:04:07;;;;;;;6.33;4.50;;;;;;;;;;6170782;23;20801;-91
2023/06/05 12:06:34;;;;;;;5.23;4.00;;;;;;;;;;6139385;23;20391;-92
2023/06/05 12:09:10;;;;;;;5.37;4.07;;;;;;;;;;6141051;23;20392;-91
2023/06/05 12:11:37;;;;;;;5.67;4.27;;;;;;;;;;6141292;23;20676;-91
2023/06/05 12:14:03;;;;;;;6.17;4.07;;;;;;;;;;6140209;23;20400;-92
2023/06/05 12:16:33;;;;;;;9.13;3.97;;;;;;;;;;6140773;23;20399;-92
2023/06/05 12:18:59;;;;;;;5.67;3.87;;;;;;;;;;6142824;23;20434;-92
2023/06/05 12:21:26;;;;;;;7.40;4.40;;;;;;;;;;6141861;23;20498;-91
2023/06/05 12:23:52;;;;;;;5.97;4.00;;;;;;;;;;6142360;23;20380;-92
2023/06/05 12:26:18;;;;;;;5.63;4.50;;;;;;;;;;6141927;23;20753;-91
2023/06/05 12:28:44;;;;;;;8.70;4.10;;;;;;;;;;6144482;23;20407;-92
2023/06/05 12:31:11;;;;;;;5.33;4.50;;;;;;;;;;6144845;23;20829;-93
2023/06/05 12:33:49;;;;;;;5.47;3.73;;;;;;;;;;6145275;23;20436;-92
2023/06/05 12:36:16;;;;;;;5.23;4.07;;;;;;;;;;6143338;23;20938;-91
2023/06/05 12:38:42;;;;;;;8.97;4.80;;;;;;;;;;6145381;23;20387;-93
2023/06/05 12:41:08;;;;;;;4.50;3.87;;;;;;;;;;6143168;23;20391;-91
2023/06/05 12:43:35;;;;;;;4.87;4.37;;;;;;;;;;6140470;23;20395;-92
2023/06/05 12:46:01;;;;;;;7.87;4.60;;;;;;;;;;6141939;23;20422;-91
2023/06/05 12:48:27;;;;;;;6.10;4.13;;;;;;;;;;6168784;23;20371;-92
2023/06/05 12:50:54;;;;;;;7.00;4.87;;;;;;;;;;6145219;23;20424;-92
2023/06/05 12:53:20;;;;;;;7.03;4.23;;;;;;;;;;6141937;23;20400;-91
2023/06/05 12:55:46;;;;;;;5.17;4.57;;;;;;;;;;6144993;23;20704;-92
2023/06/05 12:58:12;;;;;;;6.20;4.70;;;;;;;;;;6144521;23;20376;-93
2023/06/05 13:00:38;;;;;;;6.60;4.03;;;;;;;;;;6142372;23;20387;-92
2023/06/05 13:03:04;;;;;;;4.90;4.40;;;;;;;;;;6146948;23;20386;-91
2023/06/05 13:05:33;;;;;;;5.63;4.10;;;;;;;;;;6140096;23;20376;-91
2023/06/05 13:07:59;;;;;;;4.77;4.27;;;;;;;;;;6140027;23;20407;-89
2023/06/05 13:10:25;;;;;;;7.83;4.43;;;;;;;;;;6164307;23;20420;-90
2023/06/05 13:12:51;;;;;;;4.70;3.97;;;;;;;;;;6140958;23;20427;-92
2023/06/05 13:15:17;;;;;;;6.07;4.70;;;;;;;;;;6140326;23;20516;-92
2023/06/05 13:17:45;;;;;;;10.17;4.50;;;;;;;;;;6139253;23;20390;-92
2023/06/05 13:20:12;;;;;;;5.97;3.90;;;;;;;;;;6139930;23;20380;-89
2023/06/05 13:22:38;;;;;;;4.83;4.20;;;;;;;;;;6138834;23;20763;-90
2023/06/05 13:25:05;;;;;;;4.70;4.23;;;;;;;;;;6139705;23;20392;-88
2023/06/05 13:27:31;;;;;;;4.90;4.20;;;;;;;;;;6139095;23;20868;-90
2023/06/05 13:29:57;;;;;;;5.07;4.57;;;;;;;;;;6142491;23;20383;-91
2023/06/05 13:32:23;;;;;;;6.90;3.90;;;;;;;;;;6141539;23;20971;-91
2023/06/05 13:34:49;;;;;;;4.97;4.47;;;;;;;;;;6141701;23;20384;-91
2023/06/05 13:37:15;;;;;;;7.97;4.90;;;;;;;;;;6141305;23;20388;-91
2023/06/05 13:39:41;;;;;;;6.03;5.47;;;;;;;;;;6144975;23;20402;-91
2023/06/05 13:42:08;;;;;;;6.23;4.47;;;;;;;;;;6143603;23;20371;-93
2023/06/05 13:44:34;;;;;;;5.50;4.40;;;;;;;;;;6145532;23;20423;-91
2023/06/05 13:47:02;;;;;;;5.40;4.47;;;;;;;;;;6144389;23;20395;-90
2023/06/05 13:49:29;;;;;;;5.83;4.50;;;;;;;;;;6143613;23;20455;-92
2023/06/05 13:51:55;;;;;;;5.70;4.33;;;;;;;;;;6141803;23;20420;-92
2023/06/05 13:54:21;;;;;;;5.20;4.53;;;;;;;;;;6147135;23;20383;-93
2023/06/05 13:56:47;;;;;;;5.13;4.63;;;;;;;;;;6147015;23;20414;-92
2023/06/05 13:59:13;;;;;;;4.30;3.90;;;;;;;;;;6145528;23;20876;-93
2023/06/05 14:01:39;;;;;;;6.33;5.00;;;;;;;;;;6146577;23;20910;-91
2023/06/05 14:04:05;;;;;;;7.13;4.60;;;;;;;;;;6145532;23;20400;-94
2023/06/05 14:06:32;;;;;;;6.47;4.63;;;;;;;;;;6146319;23;20396;-94
2023/06/05 14:08:58;;;;;;;5.93;4.43;;;;;;;;;;6172100;23;20387;-95
2023/06/05 14:11:26;;;;;;;4.80;4.10;;;;;;;;;;6143716;23;20428;-94
2023/06/05 14:13:52;;;;;;;4.90;4.50;;;;;;;;;;6146923;23;20376;-94
2023/06/05 14:16:18;;;;;;;5.20;4.60;;;;;;;;;;6142729;23;21093;-93
2023/06/05 14:18:44;;;;;;;6.27;4.90;;;;;;;;;;6144988;23;20390;-93
2023/06/05 14:21:10;;;;;;;6.90;4.07;;;;;;;;;;6167832;23;20392;-92
2023/06/05 14:23:36;;;;;;;5.67;4.40;;;;;;;;;;6168838;23;20380;-91
2023/06/05 14:26:02;;;;;;;4.50;4.10;;;;;;;;;;6167873;23;20387;-91
2023/06/05 14:28:28;;;;;;;5.10;4.60;;;;;;;;;;6168749;23;20662;-93
2023/06/05 14:30:54;;;;;;;8.13;4.93;;;;;;;;;;6169519;23;20419;-94
2023/06/05 14:33:20;;;;;;;11.47;4.17;;;;;;;;;;6168963;23;20388;-92
2023/06/05 14:35:46;;;;;;;5.37;4.40;;;;;;;;;;6170601;23;20439;-94
2023/06/05 14:38:13;;;;;;;5.20;4.10;;;;;;;;;;6171308;23;20364;-93
2023/06/05 14:40:39;;;;;;;6.10;4.63;;;;;;;;;;6170862;23;20387;-92
2023/06/05 14:43:05;;;;;;;5.60;4.40;;;;;;;;;;6166501;23;20410;-91
2023/06/05 14:45:31;;;;;;;6.63;4.70;;;;;;;;;;6168822;23;20399;-92
2023/06/05 14:47:57;;;;;;;6.53;4.43;;;;;;;;;;6169899;23;20448;-94
2023/06/05 14:50:26;;;;;;;5.43;4.47;;;;;;;;;;6168680;23;20380;-93
2023/06/05 14:52:52;;;;;;;5.13;3.80;;;;;;;;;;6151553;23;20513;-92
2023/06/05 14:55:19;;;;;;;5.30;4.70;;;;;;;;;;6148573;23;20443;-92
2023/06/05 14:57:45;;;;;;;5.27;4.77;;;;;;;;;;6145644;23;20404;-94
2023/06/05 15:00:11;;;;;;;6.80;4.10;;;;;;;;;;6149891;23;20404;-91
2023/06/05 15:02:37;;;;;;;4.40;4.00;;;;;;;;;;6143808;23;20388;-91
2023/06/05 15:05:03;;;;;;;4.93;4.30;;;;;;;;;;6147074;23;20442;-92
2023/06/05 15:07:39;;;;;;;5.40;3.97;;;;;;;;;;6145220;23;20380;-91
2023/06/05 15:10:06;;;;;;;6.20;4.10;;;;;;;;;;6147759;23;20481;-91
2023/06/05 15:12:32;;;;;;;5.43;4.93;;;;;;;;;;6144370;23;20485;-92
2023/06/05 15:14:57;;;;;;;6.63;4.30;;;;;;;;;;6145352;23;20380;-93
2023/06/05 15:17:24;;;;;;;4.77;3.83;;;;;;;;;;6169960;23;20713;-91
2023/06/05 15:19:50;;;;;;;6.70;4.43;;;;;;;;;;6144570;23;20404;-92
2023/06/05 15:22:15;;;;;;;5.20;4.53;;;;;;;;;;6144572;23;20379;-91
2023/06/05 15:24:41;;;;;;;4.50;3.97;;;;;;;;;;6143113;23;20379;-92
2023/06/05 15:27:08;;;;;;;5.80;4.37;;;;;;;;;;6144763;23;20375;-92
2023/06/05 15:29:34;;;;;;;6.03;4.20;;;;;;;;;;6170249;23;20380;-91
2023/06/05 15:32:00;;;;;;;5.57;4.83;;;;;;;;;;6144904;23;20447;-93
2023/06/05 15:34:26;;;;;;;5.43;3.73;;;;;;;;;;6171692;23;20360;-92